createdAt,value
2022-09-24T00:01:21.825Z,14.70
2022-09-24T00:03:53.047Z,14.80
2022-09-24T00:06:20.110Z,14.60
2022-09-24T00:08:48.769Z,14.50
2022-09-24T00:11:16.325Z,14.30
2022-09-24T00:13:43.240Z,14.30
2022-09-24T00:16:11.909Z,14.30
2022-09-24T00:18:39.185Z,14.20
2022-09-24T00:21:31.958Z,14.10
2022-09-24T00:24:00.208Z,14.20
2022-09-24T00:26:45.739Z,14.30
2022-09-24T00:29:13.899Z,14.70
2022-09-24T00:31:41.247Z,14.90
2022-09-24T00:34:08.243Z,14.80
2022-09-24T00:36:34.936Z,14.80
2022-09-24T00:39:01.586Z,14.90
2022-09-24T00:41:32.830Z,14.90
2022-09-24T00:43:59.947Z,14.80
2022-09-24T00:46:33.013Z,14.90
2022-09-24T00:49:10.450Z,14.70
2022-09-24T00:51:37.694Z,14.70
2022-09-24T00:54:06.478Z,14.60
2022-09-24T00:56:36.575Z,14.50
2022-09-24T00:59:04.533Z,14.40
2022-09-24T01:01:31.235Z,14.40
2022-09-24T01:04:01.280Z,14.40
2022-09-24T01:06:28.408Z,14.30
2022-09-24T01:08:56.207Z,14.30
2022-09-24T01:11:35.553Z,14.30
2022-09-24T01:14:05.331Z,14.30
2022-09-24T01:16:50.781Z,14.30
2022-09-24T01:19:35.832Z,14.30
2022-09-24T01:22:15.594Z,14.20
2022-09-24T01:25:01.396Z,14.10
2022-09-24T01:27:31.637Z,14.10
2022-09-24T01:30:10.517Z,14.10
2022-09-24T01:32:49.568Z,14.10
2022-09-24T01:35:37.187Z,13.90
2022-09-24T01:38:07.435Z,13.80
2022-09-24T01:40:34.681Z,13.80
2022-09-24T01:43:02.191Z,13.80
2022-09-24T01:45:31.949Z,14.00
2022-09-24T01:48:02.001Z,14.10
2022-09-24T01:50:30.774Z,14.10
2022-09-24T01:53:01.746Z,13.90
2022-09-24T01:55:30.010Z,13.80
2022-09-24T01:57:59.682Z,13.80
2022-09-24T02:00:27.005Z,13.80
2022-09-24T02:03:14.822Z,13.80
2022-09-24T02:05:50.495Z,13.90
2022-09-24T02:08:20.798Z,14.10
2022-09-24T02:10:54.899Z,14.20
2022-09-24T02:13:25.080Z,14.30
2022-09-24T02:15:54.102Z,14.30
2022-09-24T02:18:23.554Z,14.30
2022-09-24T02:20:51.385Z,14.30
2022-09-24T02:23:19.316Z,14.30
2022-09-24T02:25:50.567Z,14.30
2022-09-24T02:28:20.858Z,14.40
2022-09-24T02:30:49.917Z,14.40
2022-09-24T02:33:35.639Z,14.40
2022-09-24T02:36:03.351Z,14.40
2022-09-24T02:38:30.053Z,14.60
2022-09-24T02:40:57.064Z,14.70
2022-09-24T02:43:24.282Z,14.60
2022-09-24T02:45:51.308Z,14.50
2022-09-24T02:48:18.298Z,14.40
2022-09-24T02:50:45.527Z,14.30
2022-09-24T02:53:12.351Z,14.30
2022-09-24T02:55:39.022Z,14.10
2022-09-24T02:58:05.661Z,14.00
2022-09-24T03:00:32.192Z,14.10
2022-09-24T03:02:59.237Z,14.10
2022-09-24T03:05:25.953Z,14.30
2022-09-24T03:07:52.620Z,14.30
2022-09-24T03:10:19.417Z,14.20
2022-09-24T03:12:47.095Z,14.30
2022-09-24T03:15:13.739Z,14.40
2022-09-24T03:17:40.432Z,14.40
2022-09-24T03:20:07.578Z,14.40
2022-09-24T03:22:34.477Z,14.50
2022-09-24T03:25:02.566Z,14.60
2022-09-24T03:27:29.386Z,14.50
2022-09-24T03:30:14.505Z,14.40
2022-09-24T03:32:41.088Z,14.30
2022-09-24T03:35:08.385Z,14.40
2022-09-24T03:37:37.085Z,14.20
2022-09-24T03:40:05.417Z,14.20
2022-09-24T03:42:34.022Z,14.30
2022-09-24T03:45:01.003Z,14.20
2022-09-24T03:47:28.736Z,14.00
2022-09-24T03:49:55.427Z,14.10
2022-09-24T03:52:22.051Z,14.10
2022-09-24T03:54:48.644Z,14.10
2022-09-24T03:57:15.378Z,14.10
2022-09-24T03:59:43.064Z,14.20
2022-09-24T04:02:10.590Z,14.20
2022-09-24T04:04:37.758Z,14.10
2022-09-24T04:07:05.182Z,14.00
2022-09-24T04:09:32.210Z,14.10
2022-09-24T04:11:59.112Z,13.90
2022-09-24T04:14:25.889Z,13.80
2022-09-24T04:16:53.525Z,13.80
2022-09-24T04:19:20.829Z,13.70
2022-09-24T04:21:47.468Z,13.70
2022-09-24T04:24:14.052Z,13.70
2022-09-24T04:26:40.666Z,13.80
2022-09-24T04:29:08.029Z,13.90
2022-09-24T04:31:34.636Z,14.00
2022-09-24T04:34:02.051Z,14.10
2022-09-24T04:36:28.894Z,14.10
2022-09-24T04:38:56.920Z,14.10
2022-09-24T04:41:23.833Z,14.10
2022-09-24T04:43:51.372Z,14.20
2022-09-24T04:46:19.333Z,14.40
2022-09-24T04:48:46.164Z,14.50
2022-09-24T04:51:12.834Z,14.40
2022-09-24T04:53:39.521Z,14.20
2022-09-24T04:56:11.975Z,14.20
2022-09-24T04:58:39.372Z,14.10
2022-09-24T05:01:07.194Z,14.10
2022-09-24T05:03:33.758Z,14.00
2022-09-24T05:06:01.859Z,14.10
2022-09-24T05:08:28.714Z,14.10
2022-09-24T05:10:55.384Z,14.10
2022-09-24T05:13:22.036Z,14.10
2022-09-24T05:15:48.688Z,14.00
2022-09-24T05:18:15.658Z,13.90
2022-09-24T05:20:43.099Z,14.00
2022-09-24T05:23:09.978Z,14.00
2022-09-24T05:25:59.796Z,13.90
2022-09-24T05:28:26.361Z,13.90
2022-09-24T05:30:56.675Z,14.00
2022-09-24T05:33:23.388Z,13.90
2022-09-24T05:35:53.561Z,13.90
2022-09-24T05:38:20.318Z,14.00
2022-09-24T05:40:50.418Z,14.00
2022-09-24T05:43:19.342Z,13.90
2022-09-24T05:45:46.169Z,13.90
2022-09-24T05:48:13.094Z,13.90
2022-09-24T05:50:39.746Z,14.00
2022-09-24T05:53:06.391Z,14.00
2022-09-24T05:55:33.563Z,13.90
2022-09-24T05:58:03.974Z,13.80
2022-09-24T06:00:30.564Z,13.90
2022-09-24T06:03:01.694Z,13.90
2022-09-24T06:05:28.916Z,13.80
2022-09-24T06:07:56.132Z,13.90
2022-09-24T06:10:22.713Z,13.90
2022-09-24T06:12:52.681Z,13.90
2022-09-24T06:15:20.712Z,13.90
2022-09-24T06:17:47.328Z,14.00
2022-09-24T06:20:14.004Z,13.90
2022-09-24T06:22:40.594Z,14.00
2022-09-24T06:25:07.820Z,14.00
2022-09-24T06:27:34.382Z,14.10
2022-09-24T06:30:00.974Z,14.00
2022-09-24T06:32:27.539Z,14.10
2022-09-24T06:34:58.881Z,14.10
2022-09-24T06:37:25.806Z,14.20
2022-09-24T06:39:52.365Z,14.30
2022-09-24T06:42:20.751Z,14.30
2022-09-24T06:44:48.340Z,14.50
2022-09-24T06:47:14.932Z,14.50
2022-09-24T06:49:41.608Z,14.50
2022-09-24T06:52:08.232Z,14.50
2022-09-24T06:54:34.837Z,14.50
2022-09-24T06:57:01.530Z,14.50
2022-09-24T06:59:28.439Z,14.50
2022-09-24T07:01:55.045Z,14.60
2022-09-24T07:04:21.634Z,14.70
2022-09-24T07:07:06.925Z,14.80
2022-09-24T07:09:33.640Z,14.90
2022-09-24T07:12:04.707Z,14.70
2022-09-24T07:14:32.292Z,14.70
2022-09-24T07:16:58.842Z,14.40
2022-09-24T07:19:25.439Z,14.60
2022-09-24T07:21:52.030Z,14.50
2022-09-24T07:24:18.600Z,14.50
2022-09-24T07:26:45.147Z,14.50
2022-09-24T07:29:11.782Z,14.40
2022-09-24T07:31:38.439Z,14.40
2022-09-24T07:34:06.817Z,14.30
2022-09-24T07:36:33.403Z,14.40
2022-09-24T07:39:01.207Z,14.40
2022-09-24T07:41:27.788Z,14.50
2022-09-24T07:43:55.684Z,14.40
2022-09-24T07:46:22.386Z,14.60
2022-09-24T07:48:49.173Z,14.40
2022-09-24T07:51:16.476Z,14.60
2022-09-24T07:53:43.086Z,14.60
2022-09-24T07:56:09.683Z,14.70
2022-09-24T07:58:36.319Z,14.60
2022-09-24T08:01:03.165Z,14.50
2022-09-24T08:03:29.771Z,14.50
2022-09-24T08:05:58.638Z,14.50
2022-09-24T08:08:25.469Z,14.50
2022-09-24T08:10:53.464Z,14.40
2022-09-24T08:13:24.014Z,14.50
2022-09-24T08:16:00.941Z,14.60
2022-09-24T08:18:28.348Z,14.70
2022-09-24T08:20:54.946Z,14.80
2022-09-24T08:23:21.530Z,14.80
2022-09-24T08:25:49.163Z,14.70
2022-09-24T08:28:19.717Z,14.60
2022-09-24T08:30:46.322Z,14.50
2022-09-24T08:33:13.126Z,14.50
2022-09-24T08:35:40.322Z,14.60
2022-09-24T08:38:07.297Z,14.60
2022-09-24T08:40:38.195Z,14.60
2022-09-24T08:43:16.963Z,14.50
2022-09-24T08:46:04.800Z,14.50
2022-09-24T08:48:34.375Z,14.60
2022-09-24T08:51:03.057Z,14.60
2022-09-24T08:53:48.701Z,14.60
2022-09-24T08:56:18.979Z,14.70
2022-09-24T08:58:52.376Z,14.70
2022-09-24T09:01:31.032Z,14.80
2022-09-24T09:04:10.522Z,15.00
2022-09-24T09:06:56.136Z,14.90
2022-09-24T09:09:41.261Z,14.80
2022-09-24T09:12:12.705Z,14.60
2022-09-24T09:14:42.370Z,14.70
2022-09-24T09:17:32.496Z,14.80
2022-09-24T09:20:01.840Z,14.90
2022-09-24T09:22:30.926Z,14.90
2022-09-24T09:25:03.885Z,14.90
2022-09-24T09:27:31.506Z,15.10
2022-09-24T09:29:59.706Z,15.20
2022-09-24T09:32:48.170Z,15.30
2022-09-24T09:35:28.986Z,15.30
2022-09-24T09:38:04.312Z,15.40
2022-09-24T09:40:42.974Z,15.60
2022-09-24T09:43:11.093Z,15.60
2022-09-24T09:45:40.648Z,15.60
2022-09-24T09:48:12.704Z,15.50
2022-09-24T09:50:44.927Z,15.70
2022-09-24T09:53:19.370Z,15.80
2022-09-24T09:55:51.036Z,15.90
2022-09-24T09:58:28.030Z,16.20
2022-09-24T10:01:13.030Z,16.40
2022-09-24T10:03:52.024Z,16.70
2022-09-24T10:06:26.553Z,17.00
2022-09-24T10:08:53.804Z,17.00
2022-09-24T10:11:22.167Z,16.50
2022-09-24T10:14:01.471Z,16.40
2022-09-24T10:16:28.143Z,16.40
2022-09-24T10:18:54.763Z,16.60
2022-09-24T10:21:34.781Z,16.70
2022-09-24T10:24:02.925Z,16.60
2022-09-24T10:26:45.294Z,16.60
2022-09-24T10:29:32.787Z,16.50
2022-09-24T10:31:59.451Z,16.30
2022-09-24T10:34:27.177Z,16.30
2022-09-24T10:37:08.661Z,16.30
2022-09-24T10:39:37.472Z,16.30
2022-09-24T10:42:05.311Z,16.20
2022-09-24T10:44:36.719Z,16.40
2022-09-24T10:47:04.658Z,16.30
2022-09-24T10:49:41.824Z,16.30
2022-09-24T10:52:27.018Z,16.30
2022-09-24T10:55:10.633Z,16.20
2022-09-24T10:57:43.428Z,16.20
2022-09-24T11:00:10.475Z,16.10
2022-09-24T11:02:44.533Z,16.20
2022-09-24T11:05:13.416Z,16.20
2022-09-24T11:07:59.556Z,16.10
2022-09-24T11:10:42.716Z,16.10
2022-09-24T11:13:17.650Z,16.00
2022-09-24T11:15:58.677Z,15.80
2022-09-24T11:18:32.122Z,15.50
2022-09-24T11:21:11.993Z,15.40
2022-09-24T11:23:50.694Z,15.50
2022-09-24T11:26:17.388Z,15.60
2022-09-24T11:29:06.957Z,15.50
2022-09-24T11:31:48.859Z,15.50
2022-09-24T11:34:29.332Z,15.50
2022-09-24T11:37:04.842Z,15.60
2022-09-24T11:39:43.711Z,15.50
2022-09-24T11:42:16.661Z,15.60
2022-09-24T11:44:43.442Z,15.70
2022-09-24T11:47:13.038Z,15.70
2022-09-24T11:49:39.581Z,15.70
2022-09-24T11:52:10.394Z,15.70
2022-09-24T11:54:39.900Z,15.70
2022-09-24T11:57:20.931Z,15.80
2022-09-24T11:59:53.766Z,15.80
2022-09-24T12:02:24.989Z,15.80
2022-09-24T12:04:58.217Z,15.80
2022-09-24T12:07:31.622Z,15.70
2022-09-24T12:10:07.125Z,15.70
2022-09-24T12:12:36.564Z,15.60
2022-09-24T12:15:12.516Z,15.80
2022-09-24T12:17:45.185Z,15.80
2022-09-24T12:20:23.184Z,16.00
2022-09-24T12:22:51.801Z,16.00
2022-09-24T12:25:18.384Z,16.00
2022-09-24T12:27:45.673Z,15.80
2022-09-24T12:30:40.207Z,15.80
2022-09-24T12:33:09.738Z,15.80
2022-09-24T12:35:42.704Z,15.80
2022-09-24T12:38:20.028Z,15.80
2022-09-24T12:41:05.399Z,15.70
2022-09-24T12:43:35.113Z,15.80
2022-09-24T12:46:03.056Z,15.80
2022-09-24T12:48:31.589Z,15.90
2022-09-24T12:51:02.394Z,16.20
2022-09-24T12:53:32.103Z,16.30
2022-09-24T12:55:59.667Z,16.50
2022-09-24T12:58:30.672Z,16.60
2022-09-24T13:01:14.152Z,16.60
2022-09-24T13:03:46.641Z,16.70
2022-09-24T13:06:32.635Z,16.50
2022-09-24T13:08:59.826Z,16.50
2022-09-24T13:11:26.446Z,16.40
2022-09-24T13:14:11.634Z,16.40
2022-09-24T13:16:43.231Z,16.40
2022-09-24T13:19:23.771Z,15.90
2022-09-24T13:21:54.976Z,15.60
2022-09-24T13:24:48.006Z,15.40
2022-09-24T13:27:21.749Z,15.10
2022-09-24T13:29:54.594Z,15.00
2022-09-24T13:32:21.869Z,14.90
2022-09-24T13:34:50.486Z,14.90
2022-09-24T13:37:28.387Z,15.00
2022-09-24T13:40:06.917Z,15.00
2022-09-24T13:42:36.225Z,15.00
2022-09-24T13:45:08.887Z,15.10
2022-09-24T13:47:42.679Z,15.00
2022-09-24T13:50:15.184Z,15.00
2022-09-24T13:52:41.756Z,14.80
2022-09-24T13:55:15.168Z,14.70
2022-09-24T13:57:45.868Z,14.80
2022-09-24T14:00:20.151Z,14.70
2022-09-24T14:02:53.187Z,14.70
2022-09-24T14:05:19.969Z,14.80
2022-09-24T14:07:53.904Z,14.90
2022-09-24T14:10:20.503Z,15.00
2022-09-24T14:12:47.074Z,15.20
2022-09-24T14:15:17.547Z,15.20
2022-09-24T14:17:54.567Z,14.90
2022-09-24T14:20:22.221Z,14.90
2022-09-24T14:22:49.257Z,14.80
2022-09-24T14:25:17.596Z,14.80
2022-09-24T14:27:46.323Z,14.80
2022-09-24T14:30:20.883Z,14.80
2022-09-24T14:32:51.104Z,14.80
2022-09-24T14:35:17.697Z,14.80
2022-09-24T14:37:50.262Z,14.90
2022-09-24T14:40:18.071Z,15.00
2022-09-24T14:42:47.476Z,15.10
2022-09-24T14:45:19.572Z,14.90
2022-09-24T14:47:46.308Z,14.90
2022-09-24T14:50:26.053Z,15.00
2022-09-24T14:53:00.744Z,15.00
2022-09-24T14:55:38.392Z,15.10
2022-09-24T14:58:05.123Z,15.10
2022-09-24T15:00:47.470Z,15.30
2022-09-24T15:03:15.576Z,15.20
2022-09-24T15:05:43.239Z,15.00
2022-09-24T15:08:19.699Z,15.00
2022-09-24T15:10:56.946Z,15.00
2022-09-24T15:13:30.232Z,15.00
2022-09-24T15:16:15.657Z,15.00
2022-09-24T15:18:42.394Z,14.90
2022-09-24T15:21:11.045Z,14.90
2022-09-24T15:23:37.622Z,14.80
2022-09-24T15:26:05.262Z,14.70
2022-09-24T15:28:31.906Z,14.60
2022-09-24T15:30:58.531Z,14.70
2022-09-24T15:33:25.216Z,14.60
2022-09-24T15:35:52.468Z,14.50
2022-09-24T15:38:19.664Z,14.50
2022-09-24T15:40:46.596Z,14.60
2022-09-24T15:43:21.302Z,14.60
2022-09-24T15:45:47.940Z,14.60
2022-09-24T15:48:14.730Z,14.60
2022-09-24T15:50:42.041Z,14.50
2022-09-24T15:53:12.226Z,14.40
2022-09-24T15:55:39.809Z,14.40
2022-09-24T15:58:15.769Z,14.40
2022-09-24T16:00:46.377Z,14.40
2022-09-24T16:03:20.035Z,14.30
2022-09-24T16:05:47.180Z,14.40
2022-09-24T16:08:14.242Z,14.50
2022-09-24T16:10:41.026Z,14.50
2022-09-24T16:13:08.103Z,14.40
2022-09-24T16:15:34.718Z,14.50
2022-09-24T16:18:01.585Z,14.40
2022-09-24T16:20:28.211Z,14.40
2022-09-24T16:22:54.802Z,14.40
2022-09-24T16:25:21.581Z,14.40
2022-09-24T16:27:48.163Z,14.40
2022-09-24T16:30:15.085Z,14.40
2022-09-24T16:32:41.745Z,14.40
2022-09-24T16:35:11.086Z,14.30
2022-09-24T16:37:37.692Z,14.20
2022-09-24T16:40:04.697Z,14.20
2022-09-24T16:42:31.324Z,14.20
2022-09-24T16:44:57.918Z,14.20
2022-09-24T16:47:24.959Z,14.20
2022-09-24T16:49:51.484Z,14.20
2022-09-24T16:52:18.044Z,14.20
2022-09-24T16:54:44.620Z,14.10
2022-09-24T16:57:11.192Z,14.20
2022-09-24T16:59:37.800Z,14.10
2022-09-24T17:02:04.513Z,14.10
2022-09-24T17:04:31.104Z,14.00
2022-09-24T17:06:57.867Z,14.00
2022-09-24T17:09:45.044Z,14.10
2022-09-24T17:12:11.677Z,14.10
2022-09-24T17:14:38.565Z,14.10
2022-09-24T17:17:05.788Z,14.10
2022-09-24T17:19:32.412Z,13.90
2022-09-24T17:21:59.022Z,13.90
2022-09-24T17:24:25.669Z,13.90
2022-09-24T17:26:54.033Z,13.90
2022-09-24T17:29:22.183Z,13.80
2022-09-24T17:31:49.818Z,13.80
2022-09-24T17:34:16.570Z,13.80
2022-09-24T17:36:43.114Z,13.80
2022-09-24T17:39:12.247Z,13.80
2022-09-24T17:41:38.947Z,13.80
2022-09-24T17:44:07.159Z,13.70
2022-09-24T17:46:35.738Z,13.70
2022-09-24T17:49:02.935Z,13.70
2022-09-24T17:51:32.496Z,13.90
2022-09-24T17:54:00.383Z,13.80
2022-09-24T17:56:27.684Z,13.80
2022-09-24T17:58:55.726Z,13.90
2022-09-24T18:01:23.764Z,13.90
2022-09-24T18:03:54.404Z,14.00
2022-09-24T18:06:21.014Z,14.00
2022-09-24T18:08:47.626Z,14.10
2022-09-24T18:11:18.798Z,14.10
2022-09-24T18:13:45.711Z,14.20
2022-09-24T18:16:15.812Z,13.90
2022-09-24T18:18:43.686Z,14.00
2022-09-24T18:21:12.286Z,13.90
2022-09-24T18:23:39.534Z,14.00
2022-09-24T18:26:10.711Z,13.90
2022-09-24T18:28:38.436Z,13.90
2022-09-24T18:31:05.835Z,14.10
2022-09-24T18:33:33.045Z,14.00
2022-09-24T18:36:03.497Z,14.00
2022-09-24T18:38:31.805Z,13.90
2022-09-24T18:40:59.428Z,13.90
2022-09-24T18:43:26.086Z,13.90
2022-09-24T18:45:52.746Z,13.90
2022-09-24T18:48:19.821Z,13.80
2022-09-24T18:50:46.381Z,13.80
2022-09-24T18:53:12.955Z,13.90
2022-09-24T18:55:40.624Z,13.90
2022-09-24T18:58:07.665Z,13.70
2022-09-24T19:00:49.728Z,13.80
2022-09-24T19:03:19.530Z,13.90
2022-09-24T19:05:47.658Z,13.90
2022-09-24T19:08:15.008Z,13.70
2022-09-24T19:10:41.880Z,13.70
2022-09-24T19:13:08.488Z,13.70
2022-09-24T19:15:38.727Z,13.60
2022-09-24T19:18:06.915Z,13.60
2022-09-24T19:20:37.466Z,13.70
2022-09-24T19:23:04.445Z,13.80
2022-09-24T19:25:31.909Z,13.80
2022-09-24T19:27:58.528Z,13.80
2022-09-24T19:30:25.110Z,13.80
2022-09-24T19:32:51.648Z,13.80
2022-09-24T19:35:18.216Z,13.70
2022-09-24T19:37:45.020Z,13.80
2022-09-24T19:40:13.110Z,13.80
2022-09-24T19:42:39.693Z,13.80
2022-09-24T19:45:06.484Z,13.80
2022-09-24T19:47:33.500Z,13.70
2022-09-24T19:50:00.069Z,13.80
2022-09-24T19:52:26.641Z,13.80
2022-09-24T19:54:53.248Z,13.80
2022-09-24T19:57:20.316Z,13.70
2022-09-24T19:59:46.906Z,13.70
2022-09-24T20:02:13.815Z,13.70
2022-09-24T20:04:41.366Z,13.60
2022-09-24T20:07:07.979Z,13.60
2022-09-24T20:09:34.564Z,13.50
2022-09-24T20:12:01.889Z,13.60
2022-09-24T20:14:32.853Z,13.50
2022-09-24T20:17:00.639Z,13.50
2022-09-24T20:19:27.190Z,13.30
2022-09-24T20:21:57.335Z,13.40
2022-09-24T20:24:23.972Z,13.40
2022-09-24T20:27:09.511Z,13.40
2022-09-24T20:29:37.105Z,13.40
2022-09-24T20:32:04.077Z,13.40
2022-09-24T20:34:34.416Z,13.40
2022-09-24T20:37:01.950Z,13.30
2022-09-24T20:39:29.421Z,13.30
2022-09-24T20:41:56.617Z,13.30
2022-09-24T20:44:25.136Z,13.30
2022-09-24T20:46:51.970Z,13.40
2022-09-24T20:49:22.488Z,13.40
2022-09-24T20:51:56.039Z,13.30
2022-09-24T20:54:25.174Z,13.30
2022-09-24T20:56:51.785Z,13.20
2022-09-24T20:59:18.418Z,13.30
2022-09-24T21:01:45.778Z,13.30
2022-09-24T21:04:12.485Z,13.30
2022-09-24T21:06:39.053Z,13.30
2022-09-24T21:09:05.801Z,13.40
2022-09-24T21:11:32.953Z,13.40
2022-09-24T21:14:03.304Z,13.30
2022-09-24T21:16:33.495Z,13.30
2022-09-24T21:19:00.535Z,13.30
2022-09-24T21:21:28.872Z,13.10
2022-09-24T21:23:57.104Z,13.10
2022-09-24T21:26:24.654Z,13.20
2022-09-24T21:28:52.605Z,13.40
2022-09-24T21:31:23.782Z,13.40
2022-09-24T21:33:54.365Z,13.50
2022-09-24T21:36:21.924Z,13.70
2022-09-24T21:38:55.031Z,13.80
2022-09-24T21:41:22.609Z,13.70
2022-09-24T21:43:49.512Z,13.50
2022-09-24T21:46:16.199Z,13.50
2022-09-24T21:48:42.756Z,13.60
2022-09-24T21:51:10.418Z,13.70
2022-09-24T21:53:38.003Z,13.80
2022-09-24T21:56:05.004Z,13.90
2022-09-24T21:58:31.601Z,14.00
2022-09-24T22:01:04.622Z,13.90
2022-09-24T22:03:31.994Z,13.80
2022-09-24T22:06:03.329Z,14.00
2022-09-24T22:08:31.741Z,14.00
2022-09-24T22:11:02.514Z,14.00
2022-09-24T22:13:29.715Z,14.10
2022-09-24T22:15:57.615Z,14.20
2022-09-24T22:18:24.221Z,14.10
2022-09-24T22:20:50.812Z,14.10
2022-09-24T22:23:17.349Z,14.20
2022-09-24T22:25:45.155Z,14.20
2022-09-24T22:28:15.389Z,14.20
2022-09-24T22:30:45.627Z,14.20
2022-09-24T22:33:32.809Z,14.20
2022-09-24T22:35:59.427Z,14.20
2022-09-24T22:38:25.992Z,14.10
2022-09-24T22:40:52.603Z,14.30
2022-09-24T22:43:19.226Z,14.20
2022-09-24T22:45:45.891Z,14.00
2022-09-24T22:48:12.525Z,13.90
2022-09-24T22:50:39.077Z,13.90
2022-09-24T22:53:05.611Z,14.00
2022-09-24T22:55:32.165Z,13.80
2022-09-24T22:57:58.724Z,13.80
2022-09-24T23:00:25.281Z,13.70
2022-09-24T23:02:51.844Z,13.60
2022-09-24T23:05:18.470Z,13.60
2022-09-24T23:07:45.082Z,13.60
2022-09-24T23:10:11.702Z,13.60
2022-09-24T23:12:38.311Z,13.40
2022-09-24T23:15:05.142Z,13.40
2022-09-24T23:17:31.756Z,13.40
2022-09-24T23:19:58.301Z,13.40
2022-09-24T23:22:24.910Z,13.30
2022-09-24T23:24:51.635Z,13.40
2022-09-24T23:27:18.918Z,13.50
2022-09-24T23:29:46.158Z,13.40
2022-09-24T23:32:13.880Z,13.50
2022-09-24T23:34:41.099Z,13.40
2022-09-24T23:37:07.881Z,13.40
2022-09-24T23:39:34.577Z,13.40
2022-09-24T23:42:01.138Z,13.50
2022-09-24T23:44:27.682Z,13.40
2022-09-24T23:46:54.281Z,13.40
2022-09-24T23:49:20.836Z,13.20
2022-09-24T23:51:47.372Z,13.20
2022-09-24T23:54:13.956Z,13.10
2022-09-24T23:56:40.725Z,13.10
2022-09-24T23:59:07.317Z,13.00
